sensor_id;sensor_type;location;lat;lon;timestamp;pressure;altitude;pressure_sealevel;temperature;humidity
7157;BME280;3620;49.862;8.758;2022-10-31T00:00:53;99701.00;;;14.33;100.00
7157;BME280;3620;49.862;8.758;2022-10-31T00:03:19;99709.13;;;14.30;100.00
7157;BME280;3620;49.862;8.758;2022-10-31T00:05:48;99700.31;;;14.30;99.55
7157;BME280;3620;49.862;8.758;2022-10-31T00:08:16;99706.78;;;14.24;99.63
7157;BME280;3620;49.862;8.758;2022-10-31T00:10:44;99705.06;;;14.23;100.00
7157;BME280;3620;49.862;8.758;2022-10-31T00:13:12;99703.31;;;14.22;100.00
7157;BME280;3620;49.862;8.758;2022-10-31T00:15:39;99706.59;;;14.27;100.00
7157;BME280;3620;49.862;8.758;2022-10-31T00:18:07;99704.03;;;14.26;100.00
7157;BME280;3620;49.862;8.758;2022-10-31T00:20:34;99708.31;;;14.28;100.00
7157;BME280;3620;49.862;8.758;2022-10-31T00:23:02;99715.63;;;14.23;100.00
7157;BME280;3620;49.862;8.758;2022-10-31T00:25:34;99702.38;;;14.40;100.00
7157;BME280;3620;49.862;8.758;2022-10-31T00:28:00;99709.75;;;14.35;100.00
7157;BME280;3620;49.862;8.758;2022-10-31T00:30:27;99713.31;;;14.34;100.00
7157;BME280;3620;49.862;8.758;2022-10-31T00:32:54;99717.75;;;14.34;100.00
7157;BME280;3620;49.862;8.758;2022-10-31T00:35:20;99708.78;;;14.36;100.00
7157;BME280;3620;49.862;8.758;2022-10-31T00:37:47;99716.56;;;14.39;100.00
7157;BME280;3620;49.862;8.758;2022-10-31T00:40:13;99731.59;;;14.39;100.00
7157;BME280;3620;49.862;8.758;2022-10-31T00:42:41;99722.25;;;14.32;100.00
7157;BME280;3620;49.862;8.758;2022-10-31T00:45:09;99729.19;;;14.34;100.00
7157;BME280;3620;49.862;8.758;2022-10-31T00:47:36;99726.69;;;14.31;100.00
7157;BME280;3620;49.862;8.758;2022-10-31T00:50:04;99730.91;;;14.35;100.00
7157;BME280;3620;49.862;8.758;2022-10-31T00:52:30;99737.13;;;14.34;100.00
7157;BME280;3620;49.862;8.758;2022-10-31T00:54:57;99734.78;;;14.28;100.00
7157;BME280;3620;49.862;8.758;2022-10-31T00:57:23;99735.34;;;14.35;100.00
7157;BME280;3620;49.862;8.758;2022-10-31T00:59:51;99739.63;;;14.37;100.00
7157;BME280;3620;49.862;8.758;2022-10-31T01:02:18;99737.91;;;14.36;100.00
7157;BME280;3620;49.862;8.758;2022-10-31T01:04:44;99726.97;;;14.42;100.00
7157;BME280;3620;49.862;8.758;2022-10-31T01:07:11;99729.25;;;14.50;100.00
7157;BME280;3620;49.862;8.758;2022-10-31T01:09:39;99723.31;;;14.45;100.00
7157;BME280;3620;49.862;8.758;2022-10-31T01:12:06;99734.34;;;14.37;100.00
7157;BME280;3620;49.862;8.758;2022-10-31T01:14:32;99736.22;;;14.35;100.00
7157;BME280;3620;49.862;8.758;2022-10-31T01:17:00;99723.75;;;14.37;100.00
7157;BME280;3620;49.862;8.758;2022-10-31T01:19:27;99733.38;;;14.38;100.00
7157;BME280;3620;49.862;8.758;2022-10-31T01:21:53;99730.75;;;14.38;100.00
7157;BME280;3620;49.862;8.758;2022-10-31T01:24:20;99735.34;;;14.35;100.00
7157;BME280;3620;49.862;8.758;2022-10-31T01:26:47;99732.94;;;14.30;100.00
7157;BME280;3620;49.862;8.758;2022-10-31T01:29:13;99727.94;;;14.24;100.00
7157;BME280;3620;49.862;8.758;2022-10-31T01:31:40;99728.19;;;14.20;100.00
7157;BME280;3620;49.862;8.758;2022-10-31T01:34:09;99736.94;;;14.20;100.00
7157;BME280;3620;49.862;8.758;2022-10-31T01:36:39;99735.25;;;14.19;100.00
7157;BME280;3620;49.862;8.758;2022-10-31T01:39:09;99728.09;;;14.21;100.00
7157;BME280;3620;49.862;8.758;2022-10-31T01:41:39;99730.13;;;14.16;100.00
7157;BME280;3620;49.862;8.758;2022-10-31T01:47:08;99735.59;;;14.13;100.00
7157;BME280;3620;49.862;8.758;2022-10-31T01:49:43;99725.00;;;14.13;100.00
7157;BME280;3620;49.862;8.758;2022-10-31T01:52:15;99722.50;;;14.10;100.00
7157;BME280;3620;49.862;8.758;2022-10-31T01:54:48;99725.16;;;14.10;100.00
7157;BME280;3620;49.862;8.758;2022-10-31T01:57:18;99727.16;;;14.05;100.00
7157;BME280;3620;49.862;8.758;2022-10-31T01:59:48;99724.72;;;14.02;100.00
7157;BME280;3620;49.862;8.758;2022-10-31T02:02:16;99725.94;;;14.12;100.00
7157;BME280;3620;49.862;8.758;2022-10-31T02:04:46;99727.31;;;14.19;100.00
7157;BME280;3620;49.862;8.758;2022-10-31T02:07:14;99723.91;;;14.17;100.00
7157;BME280;3620;49.862;8.758;2022-10-31T02:09:43;99722.28;;;14.15;100.00
7157;BME280;3620;49.862;8.758;2022-10-31T02:12:11;99721.19;;;14.02;100.00
7157;BME280;3620;49.862;8.758;2022-10-31T02:14:39;99726.31;;;14.05;100.00
7157;BME280;3620;49.862;8.758;2022-10-31T02:17:06;99719.78;;;14.12;100.00
7157;BME280;3620;49.862;8.758;2022-10-31T02:19:38;99725.28;;;14.07;100.00
7157;BME280;3620;49.862;8.758;2022-10-31T02:22:15;99719.09;;;14.08;100.00
7157;BME280;3620;49.862;8.758;2022-10-31T02:24:47;99723.28;;;14.12;100.00
7157;BME280;3620;49.862;8.758;2022-10-31T02:27:44;99718.47;;;14.03;100.00
7157;BME280;3620;49.862;8.758;2022-10-31T02:30:18;99715.19;;;13.98;100.00
7157;BME280;3620;49.862;8.758;2022-10-31T02:32:55;99719.09;;;13.91;100.00
7157;BME280;3620;49.862;8.758;2022-10-31T02:35:32;99709.75;;;14.01;100.00
7157;BME280;3620;49.862;8.758;2022-10-31T02:38:11;99712.97;;;13.90;100.00
7157;BME280;3620;49.862;8.758;2022-10-31T02:40:48;99707.50;;;13.93;100.00
7157;BME280;3620;49.862;8.758;2022-10-31T02:43:19;99707.91;;;13.86;100.00
7157;BME280;3620;49.862;8.758;2022-10-31T02:45:52;99709.59;;;13.87;100.00
7157;BME280;3620;49.862;8.758;2022-10-31T02:48:26;99710.38;;;13.89;100.00
7157;BME280;3620;49.862;8.758;2022-10-31T02:50:56;99706.34;;;13.99;100.00
7157;BME280;3620;49.862;8.758;2022-10-31T02:53:24;99703.69;;;13.99;100.00
7157;BME280;3620;49.862;8.758;2022-10-31T02:55:59;99702.72;;;14.00;100.00
7157;BME280;3620;49.862;8.758;2022-10-31T02:58:31;99701.66;;;14.04;100.00
7157;BME280;3620;49.862;8.758;2022-10-31T03:01:19;99702.81;;;13.98;100.00
7157;BME280;3620;49.862;8.758;2022-10-31T03:04:01;99705.06;;;13.89;100.00
7157;BME280;3620;49.862;8.758;2022-10-31T03:06:33;99700.03;;;13.84;100.00
7157;BME280;3620;49.862;8.758;2022-10-31T03:09:08;99702.63;;;13.86;100.00
7157;BME280;3620;49.862;8.758;2022-10-31T03:11:44;99701.97;;;13.81;100.00
7157;BME280;3620;49.862;8.758;2022-10-31T03:14:17;99707.59;;;13.75;100.00
7157;BME280;3620;49.862;8.758;2022-10-31T03:16:48;99709.28;;;13.76;100.00
7157;BME280;3620;49.862;8.758;2022-10-31T03:19:19;99707.50;;;13.76;100.00
7157;BME280;3620;49.862;8.758;2022-10-31T03:21:54;99714.75;;;13.73;100.00
7157;BME280;3620;49.862;8.758;2022-10-31T03:24:25;99713.47;;;13.63;100.00
7157;BME280;3620;49.862;8.758;2022-10-31T03:26:57;99711.63;;;13.65;100.00
7157;BME280;3620;49.862;8.758;2022-10-31T03:29:27;99700.56;;;13.74;100.00
7157;BME280;3620;49.862;8.758;2022-10-31T03:31:57;99698.03;;;13.72;100.00
7157;BME280;3620;49.862;8.758;2022-10-31T03:34:28;99703.69;;;13.65;100.00
7157;BME280;3620;49.862;8.758;2022-10-31T03:37:00;99698.34;;;13.66;100.00
7157;BME280;3620;49.862;8.758;2022-10-31T03:39:28;99695.59;;;13.68;100.00
7157;BME280;3620;49.862;8.758;2022-10-31T03:41:58;99696.38;;;13.70;100.00
7157;BME280;3620;49.862;8.758;2022-10-31T03:44:27;99690.00;;;13.74;100.00
7157;BME280;3620;49.862;8.758;2022-10-31T03:46:55;99691.88;;;13.72;100.00
7157;BME280;3620;49.862;8.758;2022-10-31T03:49:22;99688.44;;;13.70;100.00
7157;BME280;3620;49.862;8.758;2022-10-31T03:51:56;99693.75;;;13.70;100.00
7157;BME280;3620;49.862;8.758;2022-10-31T03:54:29;99694.50;;;13.72;100.00
7157;BME280;3620;49.862;8.758;2022-10-31T03:57:00;99678.47;;;13.58;100.00
7157;BME280;3620;49.862;8.758;2022-10-31T03:59:32;99685.50;;;13.59;100.00
7157;BME280;3620;49.862;8.758;2022-10-31T04:02:03;99684.84;;;13.54;100.00
7157;BME280;3620;49.862;8.758;2022-10-31T04:04:33;99685.63;;;13.56;100.00
7157;BME280;3620;49.862;8.758;2022-10-31T04:07:02;99683.47;;;13.64;100.00
7157;BME280;3620;49.862;8.758;2022-10-31T04:09:32;99683.16;;;13.70;100.00
7157;BME280;3620;49.862;8.758;2022-10-31T04:12:00;99681.16;;;13.75;100.00
7157;BME280;3620;49.862;8.758;2022-10-31T04:14:29;99685.34;;;13.79;100.00
7157;BME280;3620;49.862;8.758;2022-10-31T04:16:57;99682.38;;;13.85;100.00
7157;BME280;3620;49.862;8.758;2022-10-31T04:19:25;99688.63;;;13.84;100.00
7157;BME280;3620;49.862;8.758;2022-10-31T04:21:51;99688.75;;;13.81;100.00
7157;BME280;3620;49.862;8.758;2022-10-31T04:24:19;99683.25;;;13.68;100.00
7157;BME280;3620;49.862;8.758;2022-10-31T04:26:46;99692.97;;;13.51;100.00
7157;BME280;3620;49.862;8.758;2022-10-31T04:29:12;99683.00;;;13.39;100.00
7157;BME280;3620;49.862;8.758;2022-10-31T04:31:39;99681.75;;;13.29;100.00
7157;BME280;3620;49.862;8.758;2022-10-31T04:34:05;99686.84;;;13.32;100.00
7157;BME280;3620;49.862;8.758;2022-10-31T04:36:32;99680.31;;;13.21;100.00
7157;BME280;3620;49.862;8.758;2022-10-31T04:38:59;99679.00;;;13.13;100.00
7157;BME280;3620;49.862;8.758;2022-10-31T04:41:26;99673.50;;;13.17;100.00
7157;BME280;3620;49.862;8.758;2022-10-31T04:43:53;99677.03;;;13.16;100.00
7157;BME280;3620;49.862;8.758;2022-10-31T04:46:20;99675.31;;;13.15;100.00
7157;BME280;3620;49.862;8.758;2022-10-31T04:48:46;99680.47;;;13.18;100.00
7157;BME280;3620;49.862;8.758;2022-10-31T04:51:13;99679.22;;;13.08;100.00
7157;BME280;3620;49.862;8.758;2022-10-31T04:53:39;99684.50;;;13.08;100.00
7157;BME280;3620;49.862;8.758;2022-10-31T04:56:06;99684.63;;;13.05;100.00
7157;BME280;3620;49.862;8.758;2022-10-31T04:58:34;99685.34;;;13.09;100.00
7157;BME280;3620;49.862;8.758;2022-10-31T05:01:00;99689.69;;;13.10;100.00
7157;BME280;3620;49.862;8.758;2022-10-31T05:03:27;99683.63;;;13.08;100.00
7157;BME280;3620;49.862;8.758;2022-10-31T05:05:53;99683.19;;;13.17;100.00
7157;BME280;3620;49.862;8.758;2022-10-31T05:08:20;99682.19;;;13.19;100.00
7157;BME280;3620;49.862;8.758;2022-10-31T05:10:46;99689.16;;;13.20;100.00
7157;BME280;3620;49.862;8.758;2022-10-31T05:13:13;99683.59;;;13.27;100.00
7157;BME280;3620;49.862;8.758;2022-10-31T05:15:42;99684.22;;;13.32;100.00
7157;BME280;3620;49.862;8.758;2022-10-31T05:18:08;99681.75;;;13.29;100.00
7157;BME280;3620;49.862;8.758;2022-10-31T05:20:35;99671.44;;;13.22;100.00
7157;BME280;3620;49.862;8.758;2022-10-31T05:23:01;99671.31;;;13.26;100.00
7157;BME280;3620;49.862;8.758;2022-10-31T05:25:28;99673.28;;;13.22;100.00
7157;BME280;3620;49.862;8.758;2022-10-31T05:27:56;99680.59;;;13.15;100.00
7157;BME280;3620;49.862;8.758;2022-10-31T05:30:24;99675.31;;;13.15;100.00
7157;BME280;3620;49.862;8.758;2022-10-31T05:32:52;99672.47;;;13.20;100.00
7157;BME280;3620;49.862;8.758;2022-10-31T05:35:21;99671.75;;;13.16;100.00
7157;BME280;3620;49.862;8.758;2022-10-31T05:37:49;99670.50;;;13.06;100.00
7157;BME280;3620;49.862;8.758;2022-10-31T05:40:16;99674.06;;;13.05;100.00
7157;BME280;3620;49.862;8.758;2022-10-31T05:42:44;99676.81;;;13.21;100.00
7157;BME280;3620;49.862;8.758;2022-10-31T05:45:12;99675.19;;;13.18;100.00
7157;BME280;3620;49.862;8.758;2022-10-31T05:47:39;99682.34;;;13.16;100.00
7157;BME280;3620;49.862;8.758;2022-10-31T05:50:08;99674.72;;;13.10;100.00
7157;BME280;3620;49.862;8.758;2022-10-31T05:52:35;99681.09;;;13.06;100.00
7157;BME280;3620;49.862;8.758;2022-10-31T05:55:02;99673.75;;;13.11;100.00
7157;BME280;3620;49.862;8.758;2022-10-31T05:57:31;99673.63;;;13.14;100.00
7157;BME280;3620;49.862;8.758;2022-10-31T05:59:58;99672.69;;;13.15;100.00
7157;BME280;3620;49.862;8.758;2022-10-31T06:02:24;99677.81;;;13.18;100.00
7157;BME280;3620;49.862;8.758;2022-10-31T06:04:52;99667.03;;;13.23;100.00
7157;BME280;3620;49.862;8.758;2022-10-31T06:07:19;99681.03;;;13.25;100.00
7157;BME280;3620;49.862;8.758;2022-10-31T06:09:46;99671.63;;;13.19;100.00
7157;BME280;3620;49.862;8.758;2022-10-31T06:12:12;99675.91;;;13.22;100.00
7157;BME280;3620;49.862;8.758;2022-10-31T06:14:39;99673.03;;;13.27;100.00
7157;BME280;3620;49.862;8.758;2022-10-31T06:17:05;99666.50;;;13.34;100.00
7157;BME280;3620;49.862;8.758;2022-10-31T06:19:32;99668.22;;;13.35;100.00
7157;BME280;3620;49.862;8.758;2022-10-31T06:21:58;99670.13;;;13.31;100.00
7157;BME280;3620;49.862;8.758;2022-10-31T06:24:26;99672.22;;;13.24;100.00
7157;BME280;3620;49.862;8.758;2022-10-31T06:26:53;99675.03;;;13.21;100.00
7157;BME280;3620;49.862;8.758;2022-10-31T06:29:19;99681.41;;;13.17;100.00
7157;BME280;3620;49.862;8.758;2022-10-31T06:31:46;99674.84;;;13.07;100.00
7157;BME280;3620;49.862;8.758;2022-10-31T06:34:12;99675.78;;;13.06;100.00
7157;BME280;3620;49.862;8.758;2022-10-31T06:36:38;99668.66;;;13.08;100.00
7157;BME280;3620;49.862;8.758;2022-10-31T06:39:05;99677.59;;;13.04;100.00
7157;BME280;3620;49.862;8.758;2022-10-31T06:41:33;99675.34;;;12.97;100.00
7157;BME280;3620;49.862;8.758;2022-10-31T06:44:01;99680.19;;;12.87;100.00
7157;BME280;3620;49.862;8.758;2022-10-31T06:46:28;99677.06;;;12.79;100.00
7157;BME280;3620;49.862;8.758;2022-10-31T06:48:54;99681.78;;;12.73;100.00
7157;BME280;3620;49.862;8.758;2022-10-31T06:51:21;99696.09;;;12.67;100.00
7157;BME280;3620;49.862;8.758;2022-10-31T06:53:47;99690.34;;;12.59;99.51
7157;BME280;3620;49.862;8.758;2022-10-31T06:56:14;99694.19;;;12.52;99.09
7157;BME280;3620;49.862;8.758;2022-10-31T06:58:42;99704.75;;;12.52;98.48
7157;BME280;3620;49.862;8.758;2022-10-31T07:01:08;99706.72;;;12.47;98.44
7157;BME280;3620;49.862;8.758;2022-10-31T07:03:35;99710.31;;;12.46;99.59
7157;BME280;3620;49.862;8.758;2022-10-31T07:06:01;99707.47;;;12.50;99.53
7157;BME280;3620;49.862;8.758;2022-10-31T07:08:28;99701.19;;;12.53;100.00
7157;BME280;3620;49.862;8.758;2022-10-31T07:10:57;99703.41;;;12.62;100.00
7157;BME280;3620;49.862;8.758;2022-10-31T07:13:24;99697.88;;;12.67;99.87
7157;BME280;3620;49.862;8.758;2022-10-31T07:15:54;99702.75;;;12.76;100.00
7157;BME280;3620;49.862;8.758;2022-10-31T07:18:21;99702.69;;;12.77;100.00
7157;BME280;3620;49.862;8.758;2022-10-31T07:20:48;99703.78;;;12.73;100.00
7157;BME280;3620;49.862;8.758;2022-10-31T07:23:14;99706.75;;;12.84;100.00
7157;BME280;3620;49.862;8.758;2022-10-31T07:25:41;99701.31;;;12.87;100.00
7157;BME280;3620;49.862;8.758;2022-10-31T07:28:08;99706.59;;;12.87;100.00
7157;BME280;3620;49.862;8.758;2022-10-31T07:30:36;99711.75;;;12.90;100.00
7157;BME280;3620;49.862;8.758;2022-10-31T07:33:04;99711.75;;;12.90;100.00
7157;BME280;3620;49.862;8.758;2022-10-31T07:35:31;99711.09;;;12.85;100.00
7157;BME280;3620;49.862;8.758;2022-10-31T07:38:06;99711.75;;;12.90;100.00
7157;BME280;3620;49.862;8.758;2022-10-31T07:40:33;99712.41;;;12.95;100.00
7157;BME280;3620;49.862;8.758;2022-10-31T07:43:00;99704.47;;;12.95;100.00
7157;BME280;3620;49.862;8.758;2022-10-31T07:45:26;99709.75;;;12.95;100.00
7157;BME280;3620;49.862;8.758;2022-10-31T07:47:53;99704.59;;;12.92;100.00
7157;BME280;3620;49.862;8.758;2022-10-31T07:50:22;99709.59;;;12.98;100.00
7157;BME280;3620;49.862;8.758;2022-10-31T07:52:57;99709.44;;;13.01;100.00
7157;BME280;3620;49.862;8.758;2022-10-31T07:55:24;99704.31;;;12.98;100.00
7157;BME280;3620;49.862;8.758;2022-10-31T07:57:55;99710.06;;;13.08;100.00
7157;BME280;3620;49.862;8.758;2022-10-31T08:00:22;99712.56;;;13.11;100.00
7157;BME280;3620;49.862;8.758;2022-10-31T08:02:56;99708.19;;;13.10;100.00
7157;BME280;3620;49.862;8.758;2022-10-31T08:05:24;99708.06;;;13.13;100.00
7157;BME280;3620;49.862;8.758;2022-10-31T08:07:50;99711.53;;;13.13;100.00
7157;BME280;3620;49.862;8.758;2022-10-31T08:10:17;99709.16;;;13.26;100.00
7157;BME280;3620;49.862;8.758;2022-10-31T08:12:43;99703.09;;;13.24;100.00
7157;BME280;3620;49.862;8.758;2022-10-31T08:15:10;99707.66;;;13.20;100.00
7157;BME280;3620;49.862;8.758;2022-10-31T08:17:37;99703.88;;;13.26;100.00
7157;BME280;3620;49.862;8.758;2022-10-31T08:20:05;99688.91;;;13.27;100.00
7157;BME280;3620;49.862;8.758;2022-10-31T08:22:33;99699.84;;;13.36;100.00
7157;BME280;3620;49.862;8.758;2022-10-31T08:24:59;99695.84;;;13.46;100.00
7157;BME280;3620;49.862;8.758;2022-10-31T08:27:26;99694.34;;;13.58;100.00
7157;BME280;3620;49.862;8.758;2022-10-31T08:29:52;99696.28;;;13.71;100.00
7157;BME280;3620;49.862;8.758;2022-10-31T08:32:19;99689.53;;;13.83;100.00
7157;BME280;3620;49.862;8.758;2022-10-31T08:34:45;99687.19;;;13.94;100.00
7157;BME280;3620;49.862;8.758;2022-10-31T08:37:12;99683.28;;;14.01;100.00
7157;BME280;3620;49.862;8.758;2022-10-31T08:39:45;99681.97;;;14.10;100.00
7157;BME280;3620;49.862;8.758;2022-10-31T08:42:12;99671.56;;;14.22;100.00
7157;BME280;3620;49.862;8.758;2022-10-31T08:44:38;99667.81;;;14.11;100.00
7157;BME280;3620;49.862;8.758;2022-10-31T08:47:05;99668.69;;;14.27;100.00
7157;BME280;3620;49.862;8.758;2022-10-31T08:49:31;99665.19;;;14.43;100.00
7157;BME280;3620;49.862;8.758;2022-10-31T08:51:58;99656.13;;;14.47;100.00
7157;BME280;3620;49.862;8.758;2022-10-31T08:54:24;99666.38;;;14.53;100.00
7157;BME280;3620;49.862;8.758;2022-10-31T08:56:55;99660.91;;;14.56;100.00
7157;BME280;3620;49.862;8.758;2022-10-31T08:59:22;99655.97;;;14.50;100.00
7157;BME280;3620;49.862;8.758;2022-10-31T09:01:49;99658.88;;;14.61;100.00
7157;BME280;3620;49.862;8.758;2022-10-31T09:04:15;99653.09;;;14.71;100.00
7157;BME280;3620;49.862;8.758;2022-10-31T09:06:42;99653.41;;;14.80;100.00
7157;BME280;3620;49.862;8.758;2022-10-31T09:09:09;99650.00;;;14.94;100.00
7157;BME280;3620;49.862;8.758;2022-10-31T09:11:35;99652.88;;;15.05;100.00
7157;BME280;3620;49.862;8.758;2022-10-31T09:14:03;99652.56;;;15.11;100.00
7157;BME280;3620;49.862;8.758;2022-10-31T09:16:29;99646.44;;;15.24;99.40
7157;BME280;3620;49.862;8.758;2022-10-31T09:18:56;99646.50;;;15.38;99.14
7157;BME280;3620;49.862;8.758;2022-10-31T09:21:22;99651.16;;;15.35;99.01
7157;BME280;3620;49.862;8.758;2022-10-31T09:23:49;99654.19;;;15.43;98.61
7157;BME280;3620;49.862;8.758;2022-10-31T09:26:15;99653.28;;;15.44;98.54
7157;BME280;3620;49.862;8.758;2022-10-31T09:28:42;99648.97;;;15.57;98.65
7157;BME280;3620;49.862;8.758;2022-10-31T09:31:11;99649.84;;;15.72;98.89
7157;BME280;3620;49.862;8.758;2022-10-31T09:33:38;99644.66;;;15.70;98.67
7157;BME280;3620;49.862;8.758;2022-10-31T09:36:05;99646.75;;;15.79;99.15
7157;BME280;3620;49.862;8.758;2022-10-31T09:38:31;99649.78;;;15.87;97.39
7157;BME280;3620;49.862;8.758;2022-10-31T09:41:06;99644.31;;;15.90;96.32
7157;BME280;3620;49.862;8.758;2022-10-31T09:43:44;99635.38;;;15.91;96.32
7157;BME280;3620;49.862;8.758;2022-10-31T09:46:18;99640.13;;;16.00;96.31
7157;BME280;3620;49.862;8.758;2022-10-31T09:49:00;99635.03;;;16.11;96.06
7157;BME280;3620;49.862;8.758;2022-10-31T09:51:30;99639.19;;;16.15;96.64
7157;BME280;3620;49.862;8.758;2022-10-31T09:54:02;99635.97;;;16.25;97.16
7157;BME280;3620;49.862;8.758;2022-10-31T09:56:32;99631.25;;;16.30;96.96
7157;BME280;3620;49.862;8.758;2022-10-31T09:59:02;99641.47;;;16.36;96.06
7157;BME280;3620;49.862;8.758;2022-10-31T10:01:34;99630.38;;;16.29;96.70
7157;BME280;3620;49.862;8.758;2022-10-31T10:04:14;99632.38;;;16.26;96.47
7157;BME280;3620;49.862;8.758;2022-10-31T10:06:46;99631.81;;;16.21;97.21
7157;BME280;3620;49.862;8.758;2022-10-31T10:09:15;99627.66;;;16.31;97.59
7157;BME280;3620;49.862;8.758;2022-10-31T10:11:51;99623.84;;;16.35;97.08
7157;BME280;3620;49.862;8.758;2022-10-31T10:14:33;99628.94;;;16.38;96.96
7157;BME280;3620;49.862;8.758;2022-10-31T10:17:13;99626.78;;;16.58;96.21
7157;BME280;3620;49.862;8.758;2022-10-31T10:22:43;99619.25;;;16.79;95.11
7157;BME280;3620;49.862;8.758;2022-10-31T10:25:20;99615.44;;;16.83;95.33
7157;BME280;3620;49.862;8.758;2022-10-31T10:27:54;99619.00;;;16.96;95.50
7157;BME280;3620;49.862;8.758;2022-10-31T10:30:28;99622.78;;;17.06;95.34
7157;BME280;3620;49.862;8.758;2022-10-31T10:33:02;99612.47;;;17.14;95.77
7157;BME280;3620;49.862;8.758;2022-10-31T10:35:33;99615.28;;;17.25;96.06
7157;BME280;3620;49.862;8.758;2022-10-31T10:38:04;99608.59;;;17.32;95.72
7157;BME280;3620;49.862;8.758;2022-10-31T10:40:37;99611.59;;;17.40;94.85
7157;BME280;3620;49.862;8.758;2022-10-31T10:43:17;99604.53;;;17.53;94.61
7157;BME280;3620;49.862;8.758;2022-10-31T10:46:05;99601.34;;;17.61;93.34
7157;BME280;3620;49.862;8.758;2022-10-31T10:49:02;99599.13;;;17.68;93.88
7157;BME280;3620;49.862;8.758;2022-10-31T10:51:36;99591.69;;;17.73;92.93
7157;BME280;3620;49.862;8.758;2022-10-31T10:54:20;99589.78;;;17.75;93.32
7157;BME280;3620;49.862;8.758;2022-10-31T10:57:00;99591.69;;;17.85;93.07
7157;BME280;3620;49.862;8.758;2022-10-31T10:59:30;99586.34;;;17.85;93.54
7157;BME280;3620;49.862;8.758;2022-10-31T11:01:58;99581.47;;;17.92;93.71
7157;BME280;3620;49.862;8.758;2022-10-31T11:04:30;99575.50;;;17.88;93.03
7157;BME280;3620;49.862;8.758;2022-10-31T11:06:58;99572.28;;;17.96;93.75
7157;BME280;3620;49.862;8.758;2022-10-31T11:09:25;99573.03;;;18.10;92.11
7157;BME280;3620;49.862;8.758;2022-10-31T11:11:52;99570.16;;;18.26;90.78
7157;BME280;3620;49.862;8.758;2022-10-31T11:14:20;99565.03;;;18.23;91.02
7157;BME280;3620;49.862;8.758;2022-10-31T11:16:48;99555.88;;;18.14;92.17
7157;BME280;3620;49.862;8.758;2022-10-31T11:19:17;99559.31;;;18.04;93.46
7157;BME280;3620;49.862;8.758;2022-10-31T11:21:47;99551.31;;;18.04;93.73
7157;BME280;3620;49.862;8.758;2022-10-31T11:24:16;99551.00;;;18.08;94.20
7157;BME280;3620;49.862;8.758;2022-10-31T11:26:45;99551.81;;;18.09;94.31
7157;BME280;3620;49.862;8.758;2022-10-31T11:29:17;99553.34;;;18.13;94.03
7157;BME280;3620;49.862;8.758;2022-10-31T11:31:47;99542.69;;;18.13;94.97
7157;BME280;3620;49.862;8.758;2022-10-31T11:34:18;99542.44;;;18.16;95.14
7157;BME280;3620;49.862;8.758;2022-10-31T11:36:50;99531.72;;;18.17;94.26
7157;BME280;3620;49.862;8.758;2022-10-31T11:39:18;99529.78;;;18.19;93.95
7157;BME280;3620;49.862;8.758;2022-10-31T11:41:47;99531.81;;;18.16;94.94
7157;BME280;3620;49.862;8.758;2022-10-31T11:44:16;99517.28;;;18.20;95.09
7157;BME280;3620;49.862;8.758;2022-10-31T11:46:47;99516.13;;;18.24;94.16
7157;BME280;3620;49.862;8.758;2022-10-31T11:49:18;99511.44;;;18.27;94.83
7157;BME280;3620;49.862;8.758;2022-10-31T11:51:50;99514.50;;;18.34;95.34
7157;BME280;3620;49.862;8.758;2022-10-31T11:54:21;99502.78;;;18.37;95.74
7157;BME280;3620;49.862;8.758;2022-10-31T11:56:49;99505.41;;;18.49;95.22
7157;BME280;3620;49.862;8.758;2022-10-31T11:59:21;99505.47;;;18.60;94.83
7157;BME280;3620;49.862;8.758;2022-10-31T12:01:50;99504.38;;;18.75;94.26
7157;BME280;3620;49.862;8.758;2022-10-31T12:04:18;99498.31;;;18.84;92.96
7157;BME280;3620;49.862;8.758;2022-10-31T12:06:45;99492.31;;;18.93;92.38
7157;BME280;3620;49.862;8.758;2022-10-31T12:09:20;99496.94;;;19.02;91.64
7157;BME280;3620;49.862;8.758;2022-10-31T12:14:47;99484.16;;;19.19;90.95
7157;BME280;3620;49.862;8.758;2022-10-31T12:17:19;99483.66;;;19.25;90.77
7157;BME280;3620;49.862;8.758;2022-10-31T12:19:58;99479.91;;;19.27;91.74
7157;BME280;3620;49.862;8.758;2022-10-31T12:22:33;99474.03;;;19.35;91.79
7157;BME280;3620;49.862;8.758;2022-10-31T12:25:28;99465.06;;;19.47;91.19
7157;BME280;3620;49.862;8.758;2022-10-31T12:28:13;99469.69;;;19.56;90.54
7157;BME280;3620;49.862;8.758;2022-10-31T12:30:52;99466.44;;;19.63;90.01
7157;BME280;3620;49.862;8.758;2022-10-31T12:33:35;99471.63;;;19.65;89.31
7157;BME280;3620;49.862;8.758;2022-10-31T12:36:27;99472.63;;;19.75;87.54
7157;BME280;3620;49.862;8.758;2022-10-31T12:39:12;99470.91;;;19.85;88.06
7157;BME280;3620;49.862;8.758;2022-10-31T12:41:51;99463.03;;;19.84;87.57
7157;BME280;3620;49.862;8.758;2022-10-31T12:44:33;99467.53;;;19.83;88.17
7157;BME280;3620;49.862;8.758;2022-10-31T12:47:22;99459.72;;;19.91;87.02
7157;BME280;3620;49.862;8.758;2022-10-31T12:49:58;99454.88;;;19.96;87.70
7157;BME280;3620;49.862;8.758;2022-10-31T12:52:41;99453.66;;;20.00;86.98
7157;BME280;3620;49.862;8.758;2022-10-31T12:55:21;99445.28;;;20.05;86.82
7157;BME280;3620;49.862;8.758;2022-10-31T12:57:58;99435.97;;;19.88;88.21
7157;BME280;3620;49.862;8.758;2022-10-31T13:00:28;99436.47;;;19.93;88.12
7157;BME280;3620;49.862;8.758;2022-10-31T13:03:00;99426.22;;;19.98;87.98
7157;BME280;3620;49.862;8.758;2022-10-31T13:05:31;99423.31;;;20.01;88.03
7157;BME280;3620;49.862;8.758;2022-10-31T13:08:03;99411.91;;;19.99;87.86
7157;BME280;3620;49.862;8.758;2022-10-31T13:10:35;99408.25;;;20.00;88.31
7157;BME280;3620;49.862;8.758;2022-10-31T13:13:07;99401.94;;;20.01;88.78
7157;BME280;3620;49.862;8.758;2022-10-31T13:15:47;99404.84;;;19.98;88.99
7157;BME280;3620;49.862;8.758;2022-10-31T13:18:22;99401.59;;;19.95;89.74
7157;BME280;3620;49.862;8.758;2022-10-31T13:20:52;99395.66;;;19.91;90.18
7157;BME280;3620;49.862;8.758;2022-10-31T13:23:24;99396.13;;;19.96;90.28
7157;BME280;3620;49.862;8.758;2022-10-31T13:25:55;99391.78;;;19.95;90.31
7157;BME280;3620;49.862;8.758;2022-10-31T13:28:29;99384.97;;;19.91;90.38
7157;BME280;3620;49.862;8.758;2022-10-31T13:30:57;99383.50;;;19.98;89.88
7157;BME280;3620;49.862;8.758;2022-10-31T13:33:26;99377.69;;;19.93;89.52
7157;BME280;3620;49.862;8.758;2022-10-31T13:36:05;99377.94;;;19.90;89.54
7157;BME280;3620;49.862;8.758;2022-10-31T13:38:40;99372.81;;;19.98;89.47